createdAt,value
2022-09-06T00:00:59.269Z,29
2022-09-06T00:02:08.629Z,30
2022-09-06T00:03:13.026Z,37
2022-09-06T00:04:17.684Z,25
2022-09-06T00:05:22.509Z,25
2022-09-06T00:06:27.291Z,29
2022-09-06T00:07:32.125Z,27
2022-09-06T00:08:37.043Z,35
2022-09-06T00:09:41.477Z,30
2022-09-06T00:10:45.804Z,30
2022-09-06T00:11:51.286Z,41
2022-09-06T00:12:55.989Z,28
2022-09-06T00:14:08.570Z,26
2022-09-06T00:15:13.061Z,31
2022-09-06T00:16:17.401Z,32
2022-09-06T00:17:21.833Z,32
2022-09-06T00:18:26.182Z,39
2022-09-06T00:19:30.689Z,27
2022-09-06T00:20:35.737Z,34
2022-09-06T00:21:44.313Z,25
2022-09-06T00:22:48.789Z,28
2022-09-06T00:23:53.518Z,31
2022-09-06T00:24:57.985Z,27
2022-09-06T00:26:02.341Z,31
2022-09-06T00:27:07.565Z,31
2022-09-06T00:28:12.253Z,35
2022-09-06T00:29:21.609Z,31
2022-09-06T00:30:26.027Z,33
2022-09-06T00:31:30.530Z,32
2022-09-06T00:32:34.853Z,34
2022-09-06T00:33:39.377Z,29
2022-09-06T00:34:44.512Z,35
2022-09-06T00:35:48.933Z,34
2022-09-06T00:36:53.502Z,33
2022-09-06T00:37:58.201Z,35
2022-09-06T00:39:03.365Z,38
2022-09-06T00:40:07.920Z,32
2022-09-06T00:41:12.493Z,35
2022-09-06T00:42:21.977Z,30
2022-09-06T00:43:26.765Z,28
2022-09-06T00:44:31.121Z,35
2022-09-06T00:45:35.617Z,37
2022-09-06T00:46:40.262Z,35
2022-09-06T00:47:45.098Z,37
2022-09-06T00:48:50.060Z,33
2022-09-06T00:49:58.778Z,35
2022-09-06T00:51:03.919Z,32
2022-09-06T00:52:08.687Z,37
2022-09-06T00:53:13.387Z,27
2022-09-06T00:54:20.230Z,26
2022-09-06T00:55:25.078Z,31
2022-09-06T00:56:30.719Z,25
2022-09-06T00:57:36.210Z,34
2022-09-06T00:58:40.434Z,31
2022-09-06T00:59:44.931Z,30
2022-09-06T01:00:49.594Z,25
2022-09-06T01:01:54.055Z,33
2022-09-06T01:02:58.491Z,39
2022-09-06T01:04:03.314Z,32
2022-09-06T01:05:07.754Z,26
2022-09-06T01:06:12.478Z,35
2022-09-06T01:07:22.084Z,25
2022-09-06T01:08:31.583Z,27
2022-09-06T01:09:41.671Z,28
2022-09-06T01:10:51.646Z,36
2022-09-06T01:12:06.926Z,28
2022-09-06T01:13:19.534Z,25
2022-09-06T01:14:29.583Z,33
2022-09-06T01:15:36.769Z,30
2022-09-06T01:16:48.890Z,30
2022-09-06T01:17:58.198Z,25
2022-09-06T01:19:10.534Z,29
2022-09-06T01:20:27.023Z,33
2022-09-06T01:21:41.674Z,28
2022-09-06T01:22:49.030Z,27
2022-09-06T01:24:01.258Z,34
2022-09-06T01:25:05.590Z,28
2022-09-06T01:26:15.326Z,34
2022-09-06T01:27:25.054Z,32
2022-09-06T01:28:39.598Z,29
2022-09-06T01:29:46.654Z,30
2022-09-06T01:30:58.580Z,28
2022-09-06T01:32:02.825Z,29
2022-09-06T01:33:13.828Z,34
2022-09-06T01:34:18.504Z,35
2022-09-06T01:35:25.710Z,34
2022-09-06T01:36:49.737Z,39
2022-09-06T01:37:53.366Z,30
2022-09-06T01:38:57.750Z,30
2022-09-06T01:40:02.534Z,29
2022-09-06T01:41:07.046Z,33
2022-09-06T01:42:11.595Z,40
2022-09-06T01:43:18.930Z,35
2022-09-06T01:44:23.530Z,32
2022-09-06T01:45:27.998Z,36
2022-09-06T01:46:42.622Z,33
2022-09-06T01:47:47.582Z,30
2022-09-06T01:48:55.422Z,35
2022-09-06T01:50:10.466Z,35
2022-09-06T01:51:28.030Z,37
2022-09-06T01:52:37.399Z,32
2022-09-06T01:53:52.081Z,35
2022-09-06T01:55:01.902Z,34
2022-09-06T01:56:06.891Z,34
2022-09-06T01:57:21.970Z,34
2022-09-06T01:58:36.546Z,34
2022-09-06T01:59:51.118Z,29
2022-09-06T02:01:00.514Z,29
2022-09-06T02:02:10.506Z,29
2022-09-06T02:03:15.198Z,28
2022-09-06T02:04:24.930Z,37
2022-09-06T02:05:34.474Z,29
2022-09-06T02:06:38.806Z,35
2022-09-06T02:07:52.506Z,28
2022-09-06T02:08:56.782Z,31
2022-09-06T02:10:09.317Z,34
2022-09-06T02:11:23.293Z,30
2022-09-06T02:12:27.727Z,35
2022-09-06T02:13:33.627Z,32
2022-09-06T02:14:45.766Z,29
2022-09-06T02:17:02.032Z,33
2022-09-06T02:18:06.438Z,37
2022-09-06T02:19:11.602Z,30
2022-09-06T02:20:16.468Z,37
2022-09-06T02:21:21.015Z,33
2022-09-06T02:22:25.874Z,30
2022-09-06T02:23:30.255Z,35
2022-09-06T02:24:36.374Z,38
2022-09-06T02:25:41.623Z,28
2022-09-06T02:26:52.999Z,32
2022-09-06T02:27:57.470Z,36
2022-09-06T02:29:01.950Z,35
2022-09-06T02:30:06.901Z,36
2022-09-06T02:31:12.537Z,36
2022-09-06T02:32:20.053Z,35
2022-09-06T02:33:24.518Z,32
2022-09-06T02:34:29.954Z,32
2022-09-06T02:35:48.327Z,33
2022-09-06T02:37:00.458Z,33
2022-09-06T02:38:08.978Z,33
2022-09-06T02:39:13.863Z,38
2022-09-06T02:40:18.486Z,30
2022-09-06T02:41:24.349Z,34
2022-09-06T02:42:29.550Z,33
2022-09-06T02:43:34.912Z,40
2022-09-06T02:44:39.495Z,32
2022-09-06T02:45:44.705Z,41
2022-09-06T02:46:51.811Z,42
2022-09-06T02:47:55.952Z,34
2022-09-06T02:49:00.594Z,42
2022-09-06T02:50:05.036Z,42
2022-09-06T02:51:09.534Z,39
2022-09-06T02:52:14.014Z,32
2022-09-06T02:53:18.487Z,39
2022-09-06T02:54:23.490Z,40
2022-09-06T02:55:27.958Z,37
2022-09-06T02:56:32.811Z,41
2022-09-06T02:57:37.467Z,47
2022-09-06T02:58:45.858Z,42
2022-09-06T02:59:51.111Z,38
2022-09-06T03:00:56.138Z,43
2022-09-06T03:02:00.657Z,42
2022-09-06T03:03:05.254Z,39
2022-09-06T03:04:09.846Z,45
2022-09-06T03:05:14.414Z,41
2022-09-06T03:06:19.176Z,51
2022-09-06T03:07:24.048Z,44
2022-09-06T03:08:28.696Z,44
2022-09-06T03:09:35.845Z,52
2022-09-06T03:10:40.327Z,48
2022-09-06T03:11:54.270Z,50
2022-09-06T03:12:58.934Z,54
2022-09-06T03:14:03.678Z,49
2022-09-06T03:15:08.329Z,38
2022-09-06T03:16:13.461Z,47
2022-09-06T03:17:23.077Z,47
2022-09-06T03:18:27.829Z,45
2022-09-06T03:19:34.894Z,56
2022-09-06T03:20:39.362Z,50
2022-09-06T03:21:43.999Z,57
2022-09-06T03:22:48.578Z,56
2022-09-06T03:23:53.214Z,57
2022-09-06T03:24:57.529Z,60
2022-09-06T03:26:01.866Z,59
2022-09-06T03:27:06.494Z,52
2022-09-06T03:28:10.837Z,59
2022-09-06T03:29:15.130Z,58
2022-09-06T03:30:19.926Z,55
2022-09-06T03:31:24.270Z,55
2022-09-06T03:32:28.767Z,59
2022-09-06T03:33:37.538Z,52
2022-09-06T03:34:42.057Z,54
2022-09-06T03:35:46.530Z,60
2022-09-06T03:36:56.526Z,57
2022-09-06T03:38:00.965Z,62
2022-09-06T03:39:05.839Z,62
2022-09-06T03:40:10.886Z,58
2022-09-06T03:41:15.470Z,63
2022-09-06T03:42:19.861Z,60
2022-09-06T03:43:24.417Z,59
2022-09-06T03:44:28.838Z,62
2022-09-06T03:45:34.136Z,54
2022-09-06T03:46:38.637Z,59
2022-09-06T03:47:43.478Z,61
2022-09-06T03:48:51.158Z,67
2022-09-06T03:49:56.666Z,61
2022-09-06T03:51:01.285Z,59
2022-09-06T03:52:05.733Z,65
2022-09-06T03:53:10.342Z,66
2022-09-06T03:54:15.122Z,60
2022-09-06T03:55:21.486Z,63
2022-09-06T03:56:26.217Z,61
2022-09-06T03:57:30.573Z,67
2022-09-06T03:58:35.678Z,67
2022-09-06T03:59:40.045Z,61
2022-09-06T04:00:44.398Z,67
2022-09-06T04:01:49.059Z,66
2022-09-06T04:02:53.675Z,70
2022-09-06T04:03:59.478Z,73
2022-09-06T04:05:04.059Z,79
2022-09-06T04:06:08.698Z,83
2022-09-06T04:07:13.003Z,78
2022-09-06T04:08:17.163Z,81
2022-09-06T04:09:21.589Z,80
2022-09-06T04:10:25.917Z,71
2022-09-06T04:11:30.266Z,84
2022-09-06T04:12:34.566Z,84
2022-09-06T04:13:39.069Z,83
2022-09-06T04:14:45.218Z,75
2022-09-06T04:15:50.010Z,86
2022-09-06T04:16:54.607Z,86
2022-09-06T04:17:59.464Z,92
2022-09-06T04:19:03.813Z,90
2022-09-06T04:20:08.141Z,86
2022-09-06T04:21:12.345Z,87
2022-09-06T04:22:16.750Z,92
2022-09-06T04:23:21.278Z,90
2022-09-06T04:25:29.270Z,89
2022-09-06T04:26:33.662Z,84
2022-09-06T04:27:38.344Z,90
2022-09-06T04:28:43.260Z,91
2022-09-06T04:29:47.970Z,92
2022-09-06T04:30:53.789Z,95
2022-09-06T04:32:01.299Z,83
2022-09-06T04:33:05.921Z,98
2022-09-06T04:34:10.613Z,93
2022-09-06T04:35:15.473Z,92
2022-09-06T04:36:20.538Z,90
2022-09-06T04:37:25.250Z,90
2022-09-06T04:38:30.094Z,98
2022-09-06T04:39:39.742Z,97
2022-09-06T04:40:44.800Z,89
2022-09-06T04:41:49.713Z,93
2022-09-06T04:42:54.653Z,92
2022-09-06T04:43:59.418Z,97
2022-09-06T04:45:04.951Z,96
2022-09-06T04:46:10.012Z,91
2022-09-06T04:47:17.422Z,94
2022-09-06T04:48:22.475Z,95
2022-09-06T04:49:26.970Z,98
2022-09-06T04:50:31.445Z,100
2022-09-06T04:51:38.730Z,97
2022-09-06T04:52:43.038Z,98
2022-09-06T04:53:49.522Z,98
2022-09-06T04:55:58.119Z,100
2022-09-06T04:57:05.559Z,97
2022-09-06T04:58:10.190Z,101
2022-09-06T04:59:14.594Z,106
2022-09-06T05:00:19.039Z,102
2022-09-06T05:01:23.450Z,101
2022-09-06T05:02:28.298Z,105
2022-09-06T05:03:32.826Z,102
2022-09-06T05:04:37.398Z,105
2022-09-06T05:05:42.137Z,104
2022-09-06T05:06:47.242Z,109
2022-09-06T05:07:52.045Z,118
2022-09-06T05:08:56.610Z,109
2022-09-06T05:10:00.998Z,120
2022-09-06T05:11:05.726Z,121
2022-09-06T05:12:10.237Z,112
2022-09-06T05:13:17.190Z,115
2022-09-06T05:14:21.725Z,114
2022-09-06T05:15:25.954Z,110
2022-09-06T05:16:30.762Z,119
2022-09-06T05:17:35.110Z,118
2022-09-06T05:18:39.519Z,116
2022-09-06T05:19:44.203Z,115
2022-09-06T05:20:50.074Z,115
2022-09-06T05:21:56.081Z,114
2022-09-06T05:23:00.546Z,117
2022-09-06T05:24:05.102Z,117
2022-09-06T05:25:09.714Z,115
2022-09-06T05:26:14.295Z,118
2022-09-06T05:27:20.209Z,119
2022-09-06T05:28:24.636Z,122
2022-09-06T05:29:30.653Z,114
2022-09-06T05:30:33.362Z,120
2022-09-06T05:31:38.166Z,114
2022-09-06T05:32:42.946Z,108
2022-09-06T05:33:47.610Z,110
2022-09-06T05:34:52.505Z,107
2022-09-06T05:35:57.378Z,110
2022-09-06T05:37:01.909Z,109
2022-09-06T05:38:06.521Z,103
2022-09-06T05:39:11.066Z,111
2022-09-06T05:40:20.256Z,109
2022-09-06T05:41:24.735Z,113
2022-09-06T05:42:29.345Z,109
2022-09-06T05:43:33.677Z,101
2022-09-06T05:44:38.185Z,106
2022-09-06T05:45:42.720Z,108
2022-09-06T05:46:48.193Z,105
2022-09-06T05:47:52.697Z,103
2022-09-06T05:49:00.448Z,109
2022-09-06T05:50:04.811Z,99
2022-09-06T05:51:09.922Z,104
2022-09-06T05:52:14.561Z,102
2022-09-06T05:53:19.170Z,100
2022-09-06T05:54:23.561Z,104
2022-09-06T05:55:27.977Z,106
2022-09-06T05:56:32.226Z,97
2022-09-06T05:57:36.818Z,100
2022-09-06T05:58:41.839Z,93
2022-09-06T05:59:46.529Z,101
2022-09-06T06:00:50.970Z,98
2022-09-06T06:01:55.461Z,98
2022-09-06T06:03:02.613Z,97
2022-09-06T06:04:07.041Z,92
2022-09-06T06:05:11.775Z,103
2022-09-06T06:06:16.550Z,98
2022-09-06T06:07:23.701Z,94
2022-09-06T06:08:28.097Z,93
2022-09-06T06:09:32.433Z,97
2022-09-06T06:10:38.669Z,92
2022-09-06T06:11:41.055Z,101
2022-09-06T06:12:45.362Z,100
2022-09-06T06:13:49.756Z,99
2022-09-06T06:14:54.283Z,97
2022-09-06T06:15:58.649Z,94
2022-09-06T06:17:03.525Z,89
2022-09-06T06:18:07.986Z,86
2022-09-06T06:19:12.249Z,97
2022-09-06T06:20:16.673Z,91
2022-09-06T06:21:21.033Z,90
2022-09-06T06:22:27.753Z,90
2022-09-06T06:23:32.237Z,87
2022-09-06T06:24:37.905Z,87
2022-09-06T06:25:42.918Z,85
2022-09-06T06:26:47.530Z,83
2022-09-06T06:27:51.954Z,86
2022-09-06T06:28:56.317Z,84
2022-09-06T06:30:00.821Z,82
2022-09-06T06:31:05.343Z,79
2022-09-06T06:32:09.959Z,81
2022-09-06T06:33:14.313Z,76
2022-09-06T06:34:24.666Z,69
2022-09-06T06:35:29.025Z,74
2022-09-06T06:36:33.281Z,76
2022-09-06T06:37:37.526Z,66
2022-09-06T06:39:45.829Z,69
2022-09-06T06:40:52.375Z,69
2022-09-06T06:41:55.561Z,66
2022-09-06T06:43:19.033Z,79
2022-09-06T06:44:23.849Z,81
2022-09-06T06:45:28.789Z,74
2022-09-06T06:46:34.725Z,71
2022-09-06T06:47:39.061Z,70
2022-09-06T06:48:43.359Z,75
2022-09-06T06:49:47.758Z,78
2022-09-06T06:51:55.842Z,74
2022-09-06T06:53:00.073Z,69
2022-09-06T06:54:04.789Z,73
2022-09-06T06:55:09.057Z,75
2022-09-06T06:56:13.314Z,77
2022-09-06T06:57:21.761Z,79
2022-09-06T06:58:26.520Z,78
2022-09-06T06:59:31.589Z,85
2022-09-06T07:00:36.273Z,78
2022-09-06T07:01:42.156Z,86
2022-09-06T07:02:46.271Z,82
2022-09-06T07:03:51.078Z,80
2022-09-06T07:04:55.361Z,80
2022-09-06T07:06:15.386Z,76
2022-09-06T07:08:08.921Z,81
2022-09-06T07:09:13.270Z,78
2022-09-06T07:10:33.379Z,78
2022-09-06T07:11:23.015Z,77
2022-09-06T07:12:26.634Z,77
2022-09-06T07:13:30.851Z,80
2022-09-06T07:14:35.062Z,80
2022-09-06T07:15:39.638Z,73
2022-09-06T07:16:44.681Z,75
2022-09-06T07:18:53.305Z,78
2022-09-06T07:20:13.706Z,81
2022-09-06T07:22:10.474Z,87
2022-09-06T07:24:16.754Z,86
2022-09-06T07:25:21.808Z,89
2022-09-06T07:26:26.789Z,88
2022-09-06T07:27:46.980Z,93
2022-09-06T07:28:36.177Z,85
2022-09-06T07:29:40.593Z,90
2022-09-06T07:30:45.657Z,98
2022-09-06T07:32:54.773Z,101
2022-09-06T07:34:01.993Z,97
2022-09-06T07:35:06.569Z,94
2022-09-06T07:36:11.134Z,97
2022-09-06T07:37:16.191Z,92
2022-09-06T07:38:20.793Z,95
2022-09-06T07:39:27.438Z,98
2022-09-06T07:40:32.537Z,95
2022-09-06T07:41:37.017Z,96
2022-09-06T07:42:41.845Z,101
2022-09-06T07:43:46.749Z,95
2022-09-06T07:44:51.090Z,101
2022-09-06T07:45:55.802Z,101
2022-09-06T07:48:04.694Z,99
2022-09-06T07:49:09.589Z,97
2022-09-06T07:51:18.573Z,92
2022-09-06T07:53:31.012Z,94
2022-09-06T07:54:31.917Z,95
2022-09-06T07:55:36.461Z,94
2022-09-06T07:56:40.914Z,100
2022-09-06T07:57:45.385Z,90
2022-09-06T07:58:49.838Z,101
2022-09-06T07:59:54.473Z,100
2022-09-06T08:00:59.070Z,103
2022-09-06T08:02:13.907Z,103
2022-09-06T08:03:18.174Z,104
2022-09-06T08:04:22.458Z,103
2022-09-06T08:06:31.166Z,104
2022-09-06T08:07:39.161Z,100
2022-09-06T08:08:59.186Z,103
2022-09-06T08:09:47.794Z,107
2022-09-06T08:10:52.766Z,105
2022-09-06T08:11:57.465Z,102
2022-09-06T08:13:01.857Z,101
2022-09-06T08:14:06.797Z,106
2022-09-06T08:15:11.545Z,104
2022-09-06T08:16:16.060Z,109
2022-09-06T08:17:20.665Z,105
2022-09-06T08:18:25.130Z,108
2022-09-06T08:19:29.641Z,104
2022-09-06T08:20:34.289Z,101
2022-09-06T08:21:38.984Z,101
2022-09-06T08:22:43.362Z,102
2022-09-06T08:23:48.249Z,105
2022-09-06T08:24:52.545Z,104
2022-09-06T08:25:57.082Z,113
2022-09-06T08:27:01.641Z,110
2022-09-06T08:28:06.137Z,107
2022-09-06T08:29:11.714Z,108
2022-09-06T08:30:16.622Z,109
2022-09-06T08:31:20.960Z,104
2022-09-06T08:32:25.965Z,112
2022-09-06T08:33:30.536Z,107
2022-09-06T08:34:34.861Z,111
2022-09-06T08:35:39.549Z,108
2022-09-06T08:36:43.877Z,108
2022-09-06T08:37:48.165Z,108
2022-09-06T08:38:53.566Z,107
2022-09-06T08:39:59.186Z,108
2022-09-06T08:41:04.765Z,105
2022-09-06T08:42:14.258Z,112
2022-09-06T08:43:18.525Z,108
2022-09-06T08:45:28.017Z,110
2022-09-06T08:46:32.734Z,111
2022-09-06T08:47:40.385Z,110
2022-09-06T08:48:44.682Z,109
2022-09-06T08:49:49.385Z,108
2022-09-06T08:51:01.977Z,109
2022-09-06T08:52:08.897Z,113
2022-09-06T08:53:18.658Z,121
2022-09-06T08:54:23.217Z,115
2022-09-06T08:55:33.249Z,118
2022-09-06T08:56:37.665Z,111
2022-09-06T08:57:49.781Z,115
2022-09-06T08:59:02.613Z,117
2022-09-06T09:00:07.059Z,116
2022-09-06T09:01:11.649Z,128
2022-09-06T09:02:18.743Z,117
2022-09-06T09:03:23.169Z,115
2022-09-06T09:04:37.480Z,108
2022-09-06T09:05:46.881Z,112
2022-09-06T09:06:51.169Z,110
2022-09-06T09:07:55.545Z,114
2022-09-06T09:09:05.129Z,111
2022-09-06T09:10:10.233Z,110
2022-09-06T09:11:17.119Z,112
2022-09-06T09:12:21.741Z,109
2022-09-06T09:13:26.185Z,102
2022-09-06T09:14:33.461Z,104
2022-09-06T09:15:40.313Z,101
2022-09-06T09:16:42.650Z,105
2022-09-06T09:17:46.761Z,98
2022-09-06T09:18:51.016Z,100
2022-09-06T09:19:58.405Z,93
2022-09-06T09:21:03.257Z,97
2022-09-06T09:22:07.853Z,95
2022-09-06T09:23:13.197Z,95
2022-09-06T09:24:17.721Z,95
2022-09-06T09:25:22.257Z,103
2022-09-06T09:26:26.652Z,92
2022-09-06T09:27:31.366Z,85
2022-09-06T09:28:35.894Z,91
2022-09-06T09:29:41.052Z,88
2022-09-06T09:30:55.121Z,80
2022-09-06T09:32:00.063Z,81
2022-09-06T09:33:04.557Z,82
2022-09-06T09:34:15.409Z,78
2022-09-06T09:35:29.969Z,84
2022-09-06T09:36:34.720Z,85
2022-09-06T09:37:46.792Z,75
2022-09-06T09:38:44.157Z,76
2022-09-06T09:39:48.921Z,70
2022-09-06T09:40:57.535Z,74
2022-09-06T09:42:04.467Z,68
2022-09-06T09:43:08.922Z,61
2022-09-06T09:44:17.656Z,70
2022-09-06T09:45:22.099Z,59
2022-09-06T09:46:26.692Z,63
2022-09-06T09:47:37.080Z,53
2022-09-06T09:48:42.164Z,56
2022-09-06T09:49:56.923Z,55
2022-09-06T09:51:05.795Z,50
2022-09-06T09:52:20.675Z,52
2022-09-06T09:53:25.251Z,40
2022-09-06T09:54:30.125Z,45
2022-09-06T09:55:34.952Z,35
2022-09-06T09:56:39.190Z,35
2022-09-06T09:57:48.824Z,35
2022-09-06T09:58:54.311Z,34
2022-09-06T09:59:58.975Z,25
2022-09-06T10:01:04.379Z,30
2022-09-06T10:02:12.007Z,30
2022-09-06T10:03:24.539Z,30
2022-09-06T10:04:45.130Z,27
2022-09-06T10:05:35.068Z,29
2022-09-06T10:07:43.843Z,30
2022-09-06T10:08:50.971Z,32
2022-09-06T10:09:55.492Z,25
2022-09-06T10:11:03.234Z,25
2022-09-06T10:12:07.655Z,31
2022-09-06T10:13:20.091Z,31
2022-09-06T10:14:25.176Z,25
2022-09-06T10:15:35.090Z,31
2022-09-06T10:16:39.695Z,25
2022-09-06T10:17:47.047Z,27
2022-09-06T10:18:51.444Z,29
2022-09-06T10:19:56.335Z,29
2022-09-06T10:21:02.107Z,27
2022-09-06T10:22:06.415Z,28
2022-09-06T10:24:34.551Z,28
2022-09-06T10:25:42.994Z,26
2022-09-06T10:26:46.441Z,27
2022-09-06T10:28:10.257Z,27
2022-09-06T10:29:10.667Z,28
2022-09-06T10:30:15.141Z,25
2022-09-06T10:32:33.219Z,25
2022-09-06T10:33:41.087Z,32
2022-09-06T10:34:50.580Z,35
2022-09-06T10:36:03.226Z,35
2022-09-06T10:37:07.876Z,25
2022-09-06T10:38:22.629Z,31
2022-09-06T10:39:29.914Z,36
2022-09-06T10:40:46.867Z,32
2022-09-06T10:41:59.841Z,33
2022-09-06T10:43:07.111Z,32
2022-09-06T10:44:11.632Z,26
2022-09-06T10:45:22.066Z,25
2022-09-06T10:46:30.117Z,41
2022-09-06T10:47:34.455Z,36
2022-09-06T10:48:39.070Z,36
2022-09-06T10:49:43.906Z,31
2022-09-06T10:50:51.047Z,25
2022-09-06T10:51:55.370Z,34
2022-09-06T10:53:00.198Z,32
2022-09-06T10:54:15.399Z,25
2022-09-06T10:55:23.171Z,34
2022-09-06T10:56:27.965Z,35
2022-09-06T10:59:51.498Z,28
2022-09-06T11:00:59.159Z,41
2022-09-06T11:02:03.942Z,34
2022-09-06T11:04:18.514Z,28
2022-09-06T11:06:34.743Z,34
2022-09-06T11:07:39.426Z,28
2022-09-06T11:09:56.031Z,35
2022-09-06T11:11:05.831Z,36
2022-09-06T11:12:18.370Z,25
2022-09-06T11:13:30.867Z,25
2022-09-06T11:14:35.342Z,35
2022-09-06T11:15:39.615Z,30
2022-09-06T11:16:51.695Z,28
2022-09-06T11:17:56.031Z,31
2022-09-06T11:19:08.414Z,30
2022-09-06T11:20:13.102Z,25
2022-09-06T11:21:20.614Z,31
2022-09-06T11:22:35.477Z,28
2022-09-06T11:23:41.386Z,32
2022-09-06T11:24:55.871Z,29
2022-09-06T11:26:10.610Z,29
2022-09-06T11:27:25.070Z,34
2022-09-06T11:28:33.770Z,34
2022-09-06T11:29:41.718Z,29
2022-09-06T11:30:46.114Z,25
2022-09-06T11:32:56.750Z,30
2022-09-06T11:34:11.288Z,31
2022-09-06T11:35:21.143Z,26
2022-09-06T11:36:28.430Z,25
2022-09-06T11:37:35.737Z,26
2022-09-06T11:38:40.762Z,32
2022-09-06T11:40:50.154Z,34
2022-09-06T11:41:59.534Z,30
2022-09-06T11:43:04.888Z,28
2022-09-06T11:44:10.062Z,37
2022-09-06T11:45:14.463Z,40
2022-09-06T11:46:22.490Z,31
2022-09-06T11:47:35.194Z,25
2022-09-06T11:48:39.905Z,31
2022-09-06T11:49:49.675Z,38
2022-09-06T11:50:54.571Z,28
2022-09-06T11:52:05.495Z,35
2022-09-06T11:53:22.146Z,28
2022-09-06T11:54:30.106Z,26
2022-09-06T11:55:40.193Z,27
2022-09-06T11:56:47.470Z,26
2022-09-06T11:57:51.823Z,30
2022-09-06T11:58:56.292Z,32
2022-09-06T12:00:00.587Z,25
2022-09-06T12:01:05.193Z,28
2022-09-06T12:02:15.290Z,29
2022-09-06T12:04:36.882Z,31
2022-09-06T12:05:51.510Z,29
2022-09-06T12:07:06.174Z,29
2022-09-06T12:08:10.838Z,29
2022-09-06T12:09:15.735Z,26
2022-09-06T12:10:30.511Z,33
2022-09-06T12:11:40.629Z,31
2022-09-06T12:12:45.743Z,35
2022-09-06T12:13:50.217Z,34
2022-09-06T12:15:00.298Z,35
2022-09-06T12:16:15.030Z,36
2022-09-06T12:17:19.409Z,34
2022-09-06T12:18:24.079Z,36
2022-09-06T12:19:36.999Z,33
2022-09-06T12:20:51.157Z,27
2022-09-06T12:21:56.389Z,27
2022-09-06T12:23:00.822Z,40
2022-09-06T12:24:05.561Z,36
2022-09-06T12:25:14.914Z,32
2022-09-06T12:26:29.395Z,33
2022-09-06T12:27:44.226Z,32
2022-09-06T12:28:55.498Z,34
2022-09-06T12:30:00.405Z,38
2022-09-06T12:31:05.714Z,39
2022-09-06T12:32:20.602Z,33
2022-09-06T12:33:25.717Z,34
2022-09-06T12:34:32.934Z,33
2022-09-06T12:36:41.837Z,30
2022-09-06T12:37:54.655Z,32
2022-09-06T12:38:59.414Z,34
2022-09-06T12:40:09.285Z,32
2022-09-06T12:41:14.074Z,26
2022-09-06T12:42:18.722Z,25
2022-09-06T12:43:23.554Z,28
2022-09-06T12:44:28.042Z,26
2022-09-06T12:45:32.289Z,25
2022-09-06T12:46:36.504Z,30
2022-09-06T12:47:40.834Z,26
2022-09-06T12:48:46.433Z,25
2022-09-06T12:50:00.978Z,25
2022-09-06T12:51:11.979Z,30
2022-09-06T12:52:21.294Z,32
2022-09-06T12:53:26.607Z,30
2022-09-06T12:54:30.942Z,32
2022-09-06T12:55:37.052Z,35
2022-09-06T12:56:41.639Z,29
2022-09-06T12:57:46.125Z,30
2022-09-06T12:58:50.361Z,29
2022-09-06T12:59:54.918Z,29
2022-09-06T13:01:00.550Z,27
2022-09-06T13:02:05.049Z,28
2022-09-06T13:03:10.050Z,26
2022-09-06T13:04:19.559Z,31
2022-09-06T13:05:29.157Z,32
2022-09-06T13:06:33.897Z,28
2022-09-06T13:07:40.934Z,27
2022-09-06T13:08:45.994Z,34
2022-09-06T13:09:50.286Z,31
2022-09-06T13:10:54.546Z,38
2022-09-06T13:11:58.661Z,27
2022-09-06T13:13:06.657Z,29
2022-09-06T13:14:14.145Z,37
2022-09-06T13:15:18.450Z,32
2022-09-06T13:16:30.629Z,38
2022-09-06T13:17:34.870Z,39
2022-09-06T13:18:40.042Z,32
2022-09-06T13:19:44.186Z,31
2022-09-06T13:20:48.626Z,25
2022-09-06T13:21:59.643Z,29
2022-09-06T13:23:03.950Z,33
2022-09-06T13:24:11.590Z,27
2022-09-06T13:25:20.780Z,28
2022-09-06T13:26:23.910Z,32
2022-09-06T13:27:33.538Z,25
2022-09-06T13:28:38.058Z,30
2022-09-06T13:29:42.414Z,42
2022-09-06T13:30:49.881Z,38
2022-09-06T13:31:51.786Z,41
2022-09-06T13:32:57.684Z,39
2022-09-06T13:34:02.690Z,33
2022-09-06T13:35:07.406Z,35
2022-09-06T13:36:12.110Z,29
2022-09-06T13:37:16.777Z,39
2022-09-06T13:38:21.598Z,40
2022-09-06T13:39:36.179Z,44
2022-09-06T13:41:06.656Z,36
2022-09-06T13:41:47.898Z,40
2022-09-06T13:42:57.414Z,33
2022-09-06T13:44:01.998Z,39
2022-09-06T13:45:16.690Z,43
2022-09-06T13:46:29.750Z,53
2022-09-06T13:47:34.039Z,45
2022-09-06T13:48:39.108Z,46
2022-09-06T13:49:44.685Z,46
2022-09-06T13:50:49.794Z,42
2022-09-06T13:51:54.243Z,47
2022-09-06T13:52:59.674Z,53
2022-09-06T13:54:03.918Z,45
2022-09-06T13:55:08.742Z,43
2022-09-06T13:56:15.742Z,47
2022-09-06T13:57:24.271Z,48
2022-09-06T13:58:25.381Z,41
2022-09-06T13:59:31.338Z,48
2022-09-06T14:00:36.342Z,57
2022-09-06T14:01:41.903Z,45
2022-09-06T14:02:50.671Z,51
2022-09-06T14:03:55.042Z,49
2022-09-06T14:04:59.626Z,45
2022-09-06T14:06:06.814Z,48
2022-09-06T14:07:15.401Z,47
2022-09-06T14:08:20.538Z,52
2022-09-06T14:09:25.128Z,58
2022-09-06T14:10:29.509Z,50
2022-09-06T14:11:34.230Z,47
2022-09-06T14:12:42.890Z,44
2022-09-06T14:13:53.610Z,51
2022-09-06T14:15:02.405Z,52
2022-09-06T14:16:07.031Z,59
2022-09-06T14:17:11.325Z,68
2022-09-06T14:18:15.459Z,59
2022-09-06T14:19:19.767Z,57
2022-09-06T14:20:24.512Z,50
2022-09-06T14:21:29.075Z,53
2022-09-06T14:22:34.242Z,58
2022-09-06T14:23:38.899Z,64
2022-09-06T14:24:43.614Z,75
2022-09-06T14:25:48.382Z,55
2022-09-06T14:27:02.765Z,65
2022-09-06T14:28:07.714Z,61
2022-09-06T14:29:12.197Z,54
2022-09-06T14:30:16.466Z,55
2022-09-06T14:31:20.880Z,63
2022-09-06T14:32:29.298Z,60
2022-09-06T14:33:34.242Z,58
2022-09-06T14:34:39.910Z,55
2022-09-06T14:35:44.094Z,65
2022-09-06T14:36:48.362Z,60
2022-09-06T14:37:53.282Z,59
2022-09-06T14:38:58.415Z,58
2022-09-06T14:40:03.087Z,47
2022-09-06T14:41:26.505Z,53
2022-09-06T14:42:30.785Z,61
2022-09-06T14:43:34.946Z,69
2022-09-06T14:44:45.430Z,60
2022-09-06T14:45:56.463Z,67
2022-09-06T14:47:06.453Z,57
2022-09-06T14:49:14.586Z,61
2022-09-06T14:50:19.497Z,67
2022-09-06T14:51:24.461Z,62
2022-09-06T14:52:28.746Z,62
2022-09-06T14:53:40.488Z,61
2022-09-06T14:54:41.412Z,63
2022-09-06T14:55:46.461Z,66
2022-09-06T14:56:52.765Z,62
2022-09-06T14:58:10.309Z,64
2022-09-06T14:59:18.770Z,66
2022-09-06T15:00:26.309Z,59
2022-09-06T15:01:35.679Z,67
2022-09-06T15:02:35.613Z,70
2022-09-06T15:03:47.590Z,71
2022-09-06T15:04:53.498Z,70
2022-09-06T15:05:58.921Z,70
2022-09-06T15:07:03.477Z,68
2022-09-06T15:08:10.870Z,70
2022-09-06T15:09:15.416Z,73
2022-09-06T15:10:20.250Z,68
2022-09-06T15:11:24.528Z,69
2022-09-06T15:12:40.638Z,74
2022-09-06T15:13:45.108Z,72
2022-09-06T15:14:49.361Z,76
2022-09-06T15:15:55.321Z,74
2022-09-06T15:17:02.117Z,69
2022-09-06T15:18:08.282Z,71
2022-09-06T15:19:12.729Z,75
2022-09-06T15:20:17.186Z,79
2022-09-06T15:21:21.506Z,77
2022-09-06T15:22:25.853Z,73
2022-09-06T15:23:30.254Z,87
2022-09-06T15:24:34.549Z,79
2022-09-06T15:25:40.426Z,78
2022-09-06T15:26:53.281Z,86
2022-09-06T15:27:58.351Z,89
2022-09-06T15:29:21.201Z,89
2022-09-06T15:30:46.896Z,81
2022-09-06T15:33:30.490Z,87
2022-09-06T15:34:34.630Z,86
2022-09-06T15:35:41.778Z,90
2022-09-06T15:36:46.150Z,81
2022-09-06T15:37:50.482Z,80
2022-09-06T15:38:55.378Z,91
2022-09-06T15:39:59.674Z,87
2022-09-06T15:41:07.872Z,94
2022-09-06T15:42:11.373Z,87
2022-09-06T15:43:15.946Z,92
2022-09-06T15:44:27.821Z,98
2022-09-06T15:46:06.410Z,94
2022-09-06T15:47:31.274Z,95
2022-09-06T15:52:18.038Z,102
2022-09-06T15:53:22.329Z,100
2022-09-06T15:54:40.338Z,101
2022-09-06T15:56:18.405Z,102
2022-09-06T15:58:12.446Z,104
2022-09-06T16:00:19.708Z,100
2022-09-06T16:02:06.437Z,99
2022-09-06T16:03:37.746Z,105
2022-09-06T16:05:09.733Z,108
2022-09-06T16:08:02.381Z,110
2022-09-06T16:09:10.898Z,109
2022-09-06T16:11:14.234Z,110
2022-09-06T16:13:08.517Z,114
2022-09-06T16:16:05.842Z,123
2022-09-06T16:17:47.049Z,121
2022-09-06T16:20:02.678Z,115
2022-09-06T16:21:38.977Z,122
2022-09-06T16:23:18.714Z,122
2022-09-06T16:24:24.878Z,130
2022-09-06T16:25:41.229Z,117
2022-09-06T16:27:05.246Z,128
2022-09-06T16:28:31.717Z,119
2022-09-06T16:29:35.873Z,120